sensor_id;sensor_type;location;lat;lon;timestamp;P1;durP1;ratioP1;P2;durP2;ratioP2
22250;SDS011;59348;52.158;5.588;2022-09-09T00:01:58;2.92;;;1.60;;
22250;SDS011;59348;52.158;5.588;2022-09-09T00:04:28;2.92;;;1.50;;
22250;SDS011;59348;52.158;5.588;2022-09-09T00:06:59;3.05;;;1.65;;
22250;SDS011;59348;52.158;5.588;2022-09-09T00:09:29;3.05;;;1.50;;
22250;SDS011;59348;52.158;5.588;2022-09-09T00:11:58;3.80;;;1.70;;
22250;SDS011;59348;52.158;5.588;2022-09-09T00:14:32;2.30;;;1.60;;
22250;SDS011;59348;52.158;5.588;2022-09-09T00:17:02;3.97;;;1.77;;
22250;SDS011;59348;52.158;5.588;2022-09-09T00:19:32;3.63;;;1.90;;
22250;SDS011;59348;52.158;5.588;2022-09-09T00:22:05;5.03;;;2.03;;
22250;SDS011;59348;52.158;5.588;2022-09-09T00:24:37;3.85;;;2.15;;
22250;SDS011;59348;52.158;5.588;2022-09-09T00:27:06;4.43;;;2.08;;
22250;SDS011;59348;52.158;5.588;2022-09-09T00:29:36;2.00;;;1.85;;
22250;SDS011;59348;52.158;5.588;2022-09-09T00:32:09;3.35;;;2.10;;
22250;SDS011;59348;52.158;5.588;2022-09-09T00:34:46;4.30;;;2.20;;
22250;SDS011;59348;52.158;5.588;2022-09-09T00:37:15;4.97;;;2.30;;
22250;SDS011;59348;52.158;5.588;2022-09-09T00:39:42;3.55;;;2.70;;
22250;SDS011;59348;52.158;5.588;2022-09-09T00:42:13;2.88;;;2.65;;
22250;SDS011;59348;52.158;5.588;2022-09-09T00:44:46;4.03;;;2.78;;
22250;SDS011;59348;52.158;5.588;2022-09-09T00:47:23;5.03;;;2.90;;
22250;SDS011;59348;52.158;5.588;2022-09-09T00:49:58;4.32;;;3.20;;
22250;SDS011;59348;52.158;5.588;2022-09-09T00:52:32;5.03;;;3.45;;
22250;SDS011;59348;52.158;5.588;2022-09-09T00:55:05;5.50;;;3.67;;
22250;SDS011;59348;52.158;5.588;2022-09-09T00:57:35;4.72;;;3.47;;
22250;SDS011;59348;52.158;5.588;2022-09-09T01:00:16;6.53;;;3.70;;
22250;SDS011;59348;52.158;5.588;2022-09-09T01:02:46;5.93;;;4.05;;
22250;SDS011;59348;52.158;5.588;2022-09-09T01:05:21;5.80;;;4.32;;
22250;SDS011;59348;52.158;5.588;2022-09-09T01:07:53;6.07;;;4.60;;
22250;SDS011;59348;52.158;5.588;2022-09-09T01:10:24;5.65;;;4.47;;
22250;SDS011;59348;52.158;5.588;2022-09-09T01:12:53;5.78;;;4.43;;
22250;SDS011;59348;52.158;5.588;2022-09-09T01:15:24;9.25;;;5.28;;
22250;SDS011;59348;52.158;5.588;2022-09-09T01:17:55;5.80;;;4.90;;
22250;SDS011;59348;52.158;5.588;2022-09-09T01:20:27;6.22;;;4.35;;
22250;SDS011;59348;52.158;5.588;2022-09-09T01:23:03;7.43;;;5.20;;
22250;SDS011;59348;52.158;5.588;2022-09-09T01:28:16;7.05;;;5.28;;
22250;SDS011;59348;52.158;5.588;2022-09-09T01:30:44;7.82;;;5.20;;
22250;SDS011;59348;52.158;5.588;2022-09-09T01:33:12;7.10;;;4.80;;
22250;SDS011;59348;52.158;5.588;2022-09-09T01:35:43;10.90;;;5.38;;
22250;SDS011;59348;52.158;5.588;2022-09-09T01:38:13;7.40;;;5.20;;
22250;SDS011;59348;52.158;5.588;2022-09-09T01:40:41;5.85;;;5.15;;
22250;SDS011;59348;52.158;5.588;2022-09-09T01:43:08;8.18;;;5.15;;
22250;SDS011;59348;52.158;5.588;2022-09-09T01:45:37;6.20;;;4.90;;
22250;SDS011;59348;52.158;5.588;2022-09-09T01:48:05;6.40;;;5.03;;
22250;SDS011;59348;52.158;5.588;2022-09-09T01:50:32;7.40;;;4.93;;
22250;SDS011;59348;52.158;5.588;2022-09-09T01:52:59;7.55;;;5.07;;
22250;SDS011;59348;52.158;5.588;2022-09-09T01:55:29;6.80;;;4.80;;
22250;SDS011;59348;52.158;5.588;2022-09-09T01:58:00;7.78;;;4.70;;
22250;SDS011;59348;52.158;5.588;2022-09-09T02:00:30;7.50;;;4.68;;
22250;SDS011;59348;52.158;5.588;2022-09-09T02:03:00;5.53;;;4.47;;
22250;SDS011;59348;52.158;5.588;2022-09-09T02:05:35;5.75;;;4.63;;
22250;SDS011;59348;52.158;5.588;2022-09-09T02:08:05;10.02;;;4.75;;
22250;SDS011;59348;52.158;5.588;2022-09-09T02:10:33;8.60;;;4.88;;
22250;SDS011;59348;52.158;5.588;2022-09-09T02:13:03;7.22;;;4.85;;
22250;SDS011;59348;52.158;5.588;2022-09-09T02:15:32;6.45;;;4.45;;
22250;SDS011;59348;52.158;5.588;2022-09-09T02:18:03;8.23;;;5.00;;
22250;SDS011;59348;52.158;5.588;2022-09-09T02:20:33;7.65;;;5.00;;
22250;SDS011;59348;52.158;5.588;2022-09-09T02:23:02;8.63;;;5.40;;
22250;SDS011;59348;52.158;5.588;2022-09-09T02:25:30;5.72;;;5.15;;
22250;SDS011;59348;52.158;5.588;2022-09-09T02:28:00;9.82;;;6.03;;
22250;SDS011;59348;52.158;5.588;2022-09-09T02:30:29;8.77;;;5.82;;
22250;SDS011;59348;52.158;5.588;2022-09-09T02:32:56;7.88;;;5.65;;
22250;SDS011;59348;52.158;5.588;2022-09-09T02:35:26;8.45;;;5.60;;
22250;SDS011;59348;52.158;5.588;2022-09-09T02:37:56;9.05;;;5.95;;
22250;SDS011;59348;52.158;5.588;2022-09-09T02:40:25;10.57;;;6.18;;
22250;SDS011;59348;52.158;5.588;2022-09-09T02:42:53;8.40;;;6.03;;
22250;SDS011;59348;52.158;5.588;2022-09-09T02:45:22;9.40;;;6.50;;
22250;SDS011;59348;52.158;5.588;2022-09-09T02:47:51;8.65;;;6.55;;
22250;SDS011;59348;52.158;5.588;2022-09-09T02:50:22;10.52;;;6.70;;
22250;SDS011;59348;52.158;5.588;2022-09-09T02:52:54;9.95;;;6.25;;
22250;SDS011;59348;52.158;5.588;2022-09-09T02:55:27;10.38;;;6.45;;
22250;SDS011;59348;52.158;5.588;2022-09-09T02:57:57;8.68;;;6.57;;
22250;SDS011;59348;52.158;5.588;2022-09-09T03:00:25;10.15;;;6.53;;
22250;SDS011;59348;52.158;5.588;2022-09-09T03:02:53;7.88;;;6.30;;
22250;SDS011;59348;52.158;5.588;2022-09-09T03:05:20;9.50;;;5.90;;
22250;SDS011;59348;52.158;5.588;2022-09-09T03:07:48;8.68;;;5.95;;
22250;SDS011;59348;52.158;5.588;2022-09-09T03:10:17;8.25;;;5.85;;
22250;SDS011;59348;52.158;5.588;2022-09-09T03:12:44;7.97;;;5.88;;
22250;SDS011;59348;52.158;5.588;2022-09-09T03:15:12;8.77;;;6.15;;
22250;SDS011;59348;52.158;5.588;2022-09-09T03:17:39;9.07;;;6.18;;
22250;SDS011;59348;52.158;5.588;2022-09-09T03:20:07;8.20;;;5.88;;
22250;SDS011;59348;52.158;5.588;2022-09-09T03:22:34;9.40;;;6.13;;
22250;SDS011;59348;52.158;5.588;2022-09-09T03:25:02;7.97;;;6.07;;
22250;SDS011;59348;52.158;5.588;2022-09-09T03:27:30;9.50;;;5.90;;
22250;SDS011;59348;52.158;5.588;2022-09-09T03:29:58;8.70;;;6.03;;
22250;SDS011;59348;52.158;5.588;2022-09-09T03:32:28;10.05;;;6.10;;
22250;SDS011;59348;52.158;5.588;2022-09-09T03:34:56;9.27;;;5.97;;
22250;SDS011;59348;52.158;5.588;2022-09-09T03:37:23;9.35;;;5.90;;
22250;SDS011;59348;52.158;5.588;2022-09-09T03:39:51;8.77;;;6.05;;
22250;SDS011;59348;52.158;5.588;2022-09-09T03:42:19;7.20;;;5.93;;
22250;SDS011;59348;52.158;5.588;2022-09-09T03:44:48;7.50;;;5.72;;
22250;SDS011;59348;52.158;5.588;2022-09-09T03:47:16;9.10;;;6.10;;
22250;SDS011;59348;52.158;5.588;2022-09-09T03:49:44;9.80;;;6.05;;
22250;SDS011;59348;52.158;5.588;2022-09-09T03:52:12;10.50;;;6.30;;
22250;SDS011;59348;52.158;5.588;2022-09-09T03:54:39;10.18;;;6.32;;
22250;SDS011;59348;52.158;5.588;2022-09-09T03:57:07;11.25;;;6.13;;
22250;SDS011;59348;52.158;5.588;2022-09-09T03:59:35;12.73;;;6.30;;
22250;SDS011;59348;52.158;5.588;2022-09-09T04:02:03;10.75;;;6.65;;
22250;SDS011;59348;52.158;5.588;2022-09-09T04:04:31;8.57;;;6.25;;
22250;SDS011;59348;52.158;5.588;2022-09-09T04:06:58;8.35;;;6.40;;
22250;SDS011;59348;52.158;5.588;2022-09-09T04:09:25;11.57;;;6.50;;
22250;SDS011;59348;52.158;5.588;2022-09-09T04:11:52;9.20;;;6.30;;
22250;SDS011;59348;52.158;5.588;2022-09-09T04:14:20;10.75;;;6.30;;
22250;SDS011;59348;52.158;5.588;2022-09-09T04:16:48;10.48;;;6.65;;
22250;SDS011;59348;52.158;5.588;2022-09-09T04:19:16;7.25;;;5.80;;
22250;SDS011;59348;52.158;5.588;2022-09-09T04:21:43;7.63;;;6.40;;
22250;SDS011;59348;52.158;5.588;2022-09-09T04:24:11;7.88;;;6.43;;
22250;SDS011;59348;52.158;5.588;2022-09-09T04:26:38;7.88;;;6.50;;
22250;SDS011;59348;52.158;5.588;2022-09-09T04:29:06;9.73;;;5.97;;
22250;SDS011;59348;52.158;5.588;2022-09-09T04:31:34;9.70;;;6.70;;
22250;SDS011;59348;52.158;5.588;2022-09-09T04:34:01;9.60;;;6.20;;
22250;SDS011;59348;52.158;5.588;2022-09-09T04:36:31;8.82;;;6.45;;
22250;SDS011;59348;52.158;5.588;2022-09-09T04:38:59;10.32;;;6.50;;
22250;SDS011;59348;52.158;5.588;2022-09-09T04:41:27;10.10;;;6.60;;
22250;SDS011;59348;52.158;5.588;2022-09-09T04:43:56;10.25;;;6.30;;
22250;SDS011;59348;52.158;5.588;2022-09-09T04:46:24;15.93;;;6.65;;
22250;SDS011;59348;52.158;5.588;2022-09-09T04:48:51;11.43;;;6.35;;
22250;SDS011;59348;52.158;5.588;2022-09-09T04:51:18;9.00;;;6.50;;
22250;SDS011;59348;52.158;5.588;2022-09-09T04:53:47;10.80;;;6.32;;
22250;SDS011;59348;52.158;5.588;2022-09-09T04:56:16;9.25;;;5.88;;
22250;SDS011;59348;52.158;5.588;2022-09-09T04:58:43;9.82;;;5.90;;
22250;SDS011;59348;52.158;5.588;2022-09-09T05:01:11;9.85;;;6.13;;
22250;SDS011;59348;52.158;5.588;2022-09-09T05:03:39;13.55;;;6.20;;
22250;SDS011;59348;52.158;5.588;2022-09-09T05:06:07;12.13;;;6.38;;
22250;SDS011;59348;52.158;5.588;2022-09-09T05:08:35;10.13;;;6.03;;
22250;SDS011;59348;52.158;5.588;2022-09-09T05:11:11;8.20;;;5.72;;
22250;SDS011;59348;52.158;5.588;2022-09-09T05:13:39;10.18;;;6.50;;
22250;SDS011;59348;52.158;5.588;2022-09-09T05:16:06;9.07;;;6.10;;
22250;SDS011;59348;52.158;5.588;2022-09-09T05:18:36;10.32;;;5.72;;
22250;SDS011;59348;52.158;5.588;2022-09-09T05:21:03;13.60;;;5.93;;
22250;SDS011;59348;52.158;5.588;2022-09-09T05:23:31;8.07;;;5.82;;
22250;SDS011;59348;52.158;5.588;2022-09-09T05:25:59;9.05;;;6.00;;
22250;SDS011;59348;52.158;5.588;2022-09-09T05:28:27;8.80;;;5.95;;
22250;SDS011;59348;52.158;5.588;2022-09-09T05:30:56;12.90;;;5.55;;
22250;SDS011;59348;52.158;5.588;2022-09-09T05:33:24;11.10;;;5.88;;
22250;SDS011;59348;52.158;5.588;2022-09-09T05:35:55;11.77;;;6.13;;
22250;SDS011;59348;52.158;5.588;2022-09-09T05:38:22;8.90;;;5.60;;
22250;SDS011;59348;52.158;5.588;2022-09-09T05:40:50;14.18;;;5.55;;
22250;SDS011;59348;52.158;5.588;2022-09-09T05:43:18;10.93;;;5.47;;
22250;SDS011;59348;52.158;5.588;2022-09-09T05:45:47;11.70;;;5.50;;
22250;SDS011;59348;52.158;5.588;2022-09-09T05:48:14;9.15;;;5.35;;
22250;SDS011;59348;52.158;5.588;2022-09-09T05:50:42;9.48;;;5.28;;
22250;SDS011;59348;52.158;5.588;2022-09-09T05:53:10;7.18;;;4.97;;
22250;SDS011;59348;52.158;5.588;2022-09-09T05:55:37;9.60;;;5.43;;
22250;SDS011;59348;52.158;5.588;2022-09-09T05:58:04;9.85;;;5.47;;
22250;SDS011;59348;52.158;5.588;2022-09-09T06:00:32;10.98;;;5.05;;
22250;SDS011;59348;52.158;5.588;2022-09-09T06:03:00;12.00;;;4.85;;
22250;SDS011;59348;52.158;5.588;2022-09-09T06:05:28;13.45;;;5.47;;
22250;SDS011;59348;52.158;5.588;2022-09-09T06:07:56;10.63;;;4.80;;
22250;SDS011;59348;52.158;5.588;2022-09-09T06:10:24;10.85;;;4.97;;
22250;SDS011;59348;52.158;5.588;2022-09-09T06:12:52;11.60;;;5.07;;
22250;SDS011;59348;52.158;5.588;2022-09-09T06:15:21;9.35;;;4.90;;
22250;SDS011;59348;52.158;5.588;2022-09-09T06:17:53;11.30;;;5.10;;
22250;SDS011;59348;52.158;5.588;2022-09-09T06:20:22;7.30;;;4.32;;
22250;SDS011;59348;52.158;5.588;2022-09-09T06:22:53;12.82;;;4.68;;
22250;SDS011;59348;52.158;5.588;2022-09-09T06:25:20;10.38;;;4.40;;
22250;SDS011;59348;52.158;5.588;2022-09-09T06:27:49;10.15;;;3.95;;
22250;SDS011;59348;52.158;5.588;2022-09-09T06:30:17;6.95;;;4.07;;
22250;SDS011;59348;52.158;5.588;2022-09-09T06:32:44;9.85;;;4.18;;
22250;SDS011;59348;52.158;5.588;2022-09-09T06:35:12;11.85;;;4.28;;
22250;SDS011;59348;52.158;5.588;2022-09-09T06:37:44;12.70;;;4.63;;
22250;SDS011;59348;52.158;5.588;2022-09-09T06:40:14;15.32;;;4.70;;
22250;SDS011;59348;52.158;5.588;2022-09-09T06:42:41;9.23;;;4.10;;
22250;SDS011;59348;52.158;5.588;2022-09-09T06:45:09;9.55;;;4.53;;
22250;SDS011;59348;52.158;5.588;2022-09-09T06:47:37;12.07;;;4.20;;
22250;SDS011;59348;52.158;5.588;2022-09-09T06:50:04;9.65;;;4.70;;
22250;SDS011;59348;52.158;5.588;2022-09-09T06:52:32;9.23;;;4.05;;
22250;SDS011;59348;52.158;5.588;2022-09-09T06:55:01;15.10;;;4.45;;
22250;SDS011;59348;52.158;5.588;2022-09-09T06:57:29;10.38;;;4.30;;
22250;SDS011;59348;52.158;5.588;2022-09-09T06:59:56;12.25;;;4.35;;
22250;SDS011;59348;52.158;5.588;2022-09-09T07:02:24;12.65;;;4.30;;
22250;SDS011;59348;52.158;5.588;2022-09-09T07:04:51;10.85;;;4.10;;
22250;SDS011;59348;52.158;5.588;2022-09-09T07:07:18;12.75;;;4.40;;
22250;SDS011;59348;52.158;5.588;2022-09-09T07:09:45;13.50;;;4.25;;
22250;SDS011;59348;52.158;5.588;2022-09-09T07:12:15;8.95;;;4.10;;
22250;SDS011;59348;52.158;5.588;2022-09-09T07:14:42;7.72;;;3.97;;
22250;SDS011;59348;52.158;5.588;2022-09-09T07:17:09;12.25;;;4.10;;
22250;SDS011;59348;52.158;5.588;2022-09-09T07:19:37;11.40;;;4.28;;
22250;SDS011;59348;52.158;5.588;2022-09-09T07:22:04;8.63;;;3.65;;
22250;SDS011;59348;52.158;5.588;2022-09-09T07:24:31;11.85;;;3.83;;
22250;SDS011;59348;52.158;5.588;2022-09-09T07:26:58;9.50;;;4.10;;
22250;SDS011;59348;52.158;5.588;2022-09-09T07:29:27;11.18;;;4.07;;
22250;SDS011;59348;52.158;5.588;2022-09-09T07:31:54;14.02;;;3.90;;
22250;SDS011;59348;52.158;5.588;2022-09-09T07:34:21;14.65;;;3.85;;
22250;SDS011;59348;52.158;5.588;2022-09-09T07:36:49;9.05;;;4.15;;
22250;SDS011;59348;52.158;5.588;2022-09-09T07:39:16;10.60;;;4.00;;
22250;SDS011;59348;52.158;5.588;2022-09-09T07:41:44;9.40;;;3.88;;
22250;SDS011;59348;52.158;5.588;2022-09-09T07:44:12;10.63;;;3.70;;
22250;SDS011;59348;52.158;5.588;2022-09-09T07:46:41;16.63;;;4.28;;
22250;SDS011;59348;52.158;5.588;2022-09-09T07:49:10;8.00;;;3.50;;
22250;SDS011;59348;52.158;5.588;2022-09-09T07:51:38;9.57;;;3.35;;
22250;SDS011;59348;52.158;5.588;2022-09-09T07:54:06;11.48;;;3.80;;
22250;SDS011;59348;52.158;5.588;2022-09-09T07:56:34;13.13;;;3.58;;
22250;SDS011;59348;52.158;5.588;2022-09-09T07:59:02;9.73;;;3.80;;
22250;SDS011;59348;52.158;5.588;2022-09-09T08:01:31;10.43;;;3.80;;
22250;SDS011;59348;52.158;5.588;2022-09-09T08:04:02;12.35;;;3.60;;
22250;SDS011;59348;52.158;5.588;2022-09-09T08:06:31;11.90;;;3.50;;
22250;SDS011;59348;52.158;5.588;2022-09-09T08:08:59;10.63;;;3.60;;
22250;SDS011;59348;52.158;5.588;2022-09-09T08:11:27;11.30;;;3.38;;
22250;SDS011;59348;52.158;5.588;2022-09-09T08:13:55;13.43;;;3.67;;
22250;SDS011;59348;52.158;5.588;2022-09-09T08:16:23;11.60;;;3.17;;
22250;SDS011;59348;52.158;5.588;2022-09-09T08:18:51;10.32;;;3.30;;
22250;SDS011;59348;52.158;5.588;2022-09-09T08:21:20;11.48;;;3.38;;
22250;SDS011;59348;52.158;5.588;2022-09-09T08:23:49;8.13;;;2.97;;
22250;SDS011;59348;52.158;5.588;2022-09-09T08:26:18;12.25;;;3.08;;
22250;SDS011;59348;52.158;5.588;2022-09-09T08:28:48;11.27;;;3.20;;
22250;SDS011;59348;52.158;5.588;2022-09-09T08:31:16;10.52;;;2.92;;
22250;SDS011;59348;52.158;5.588;2022-09-09T08:33:44;9.32;;;2.65;;
22250;SDS011;59348;52.158;5.588;2022-09-09T08:36:12;11.65;;;3.10;;
22250;SDS011;59348;52.158;5.588;2022-09-09T08:38:42;11.00;;;3.47;;
22250;SDS011;59348;52.158;5.588;2022-09-09T08:41:15;12.65;;;3.17;;
22250;SDS011;59348;52.158;5.588;2022-09-09T08:43:44;10.30;;;2.83;;
22250;SDS011;59348;52.158;5.588;2022-09-09T08:46:14;10.32;;;2.90;;
22250;SDS011;59348;52.158;5.588;2022-09-09T08:48:46;13.57;;;3.30;;
22250;SDS011;59348;52.158;5.588;2022-09-09T08:51:17;10.80;;;2.90;;
22250;SDS011;59348;52.158;5.588;2022-09-09T08:53:48;13.60;;;3.33;;
22250;SDS011;59348;52.158;5.588;2022-09-09T08:56:16;11.30;;;3.10;;
22250;SDS011;59348;52.158;5.588;2022-09-09T08:58:48;10.65;;;2.70;;
22250;SDS011;59348;52.158;5.588;2022-09-09T09:01:18;10.50;;;2.80;;
22250;SDS011;59348;52.158;5.588;2022-09-09T09:03:52;9.18;;;2.40;;
22250;SDS011;59348;52.158;5.588;2022-09-09T09:06:26;10.85;;;2.72;;
22250;SDS011;59348;52.158;5.588;2022-09-09T09:09:01;10.13;;;2.75;;
22250;SDS011;59348;52.158;5.588;2022-09-09T09:11:34;9.30;;;2.70;;
22250;SDS011;59348;52.158;5.588;2022-09-09T09:14:01;9.45;;;2.80;;
22250;SDS011;59348;52.158;5.588;2022-09-09T09:16:31;7.85;;;2.63;;
22250;SDS011;59348;52.158;5.588;2022-09-09T09:19:00;10.05;;;2.55;;
22250;SDS011;59348;52.158;5.588;2022-09-09T09:21:29;11.52;;;2.75;;
22250;SDS011;59348;52.158;5.588;2022-09-09T09:24:00;11.85;;;3.13;;
22250;SDS011;59348;52.158;5.588;2022-09-09T09:26:30;8.48;;;2.35;;
22250;SDS011;59348;52.158;5.588;2022-09-09T09:28:58;13.35;;;2.80;;
22250;SDS011;59348;52.158;5.588;2022-09-09T09:31:25;9.93;;;2.85;;
22250;SDS011;59348;52.158;5.588;2022-09-09T09:33:53;6.85;;;2.67;;
22250;SDS011;59348;52.158;5.588;2022-09-09T09:36:21;9.05;;;2.67;;
22250;SDS011;59348;52.158;5.588;2022-09-09T09:38:52;8.93;;;2.65;;
22250;SDS011;59348;52.158;5.588;2022-09-09T09:44:05;12.52;;;2.83;;
22250;SDS011;59348;52.158;5.588;2022-09-09T09:46:33;10.90;;;2.58;;
22250;SDS011;59348;52.158;5.588;2022-09-09T09:49:02;9.65;;;2.90;;
22250;SDS011;59348;52.158;5.588;2022-09-09T09:51:31;12.45;;;2.85;;
22250;SDS011;59348;52.158;5.588;2022-09-09T09:54:08;10.68;;;2.70;;
22250;SDS011;59348;52.158;5.588;2022-09-09T09:56:36;8.60;;;2.40;;
22250;SDS011;59348;52.158;5.588;2022-09-09T09:59:17;9.27;;;2.55;;
22250;SDS011;59348;52.158;5.588;2022-09-09T10:01:46;13.50;;;2.83;;
22250;SDS011;59348;52.158;5.588;2022-09-09T10:04:14;7.45;;;2.42;;
22250;SDS011;59348;52.158;5.588;2022-09-09T10:06:43;10.48;;;2.78;;
22250;SDS011;59348;52.158;5.588;2022-09-09T10:09:20;10.00;;;2.63;;
22250;SDS011;59348;52.158;5.588;2022-09-09T10:11:49;7.97;;;2.63;;
22250;SDS011;59348;52.158;5.588;2022-09-09T10:14:20;8.85;;;2.75;;
22250;SDS011;59348;52.158;5.588;2022-09-09T10:16:52;13.18;;;3.00;;
22250;SDS011;59348;52.158;5.588;2022-09-09T10:19:27;13.68;;;2.83;;
22250;SDS011;59348;52.158;5.588;2022-09-09T10:22:01;10.93;;;2.47;;
22250;SDS011;59348;52.158;5.588;2022-09-09T10:24:36;14.13;;;3.38;;
22250;SDS011;59348;52.158;5.588;2022-09-09T10:27:11;6.63;;;2.67;;
22250;SDS011;59348;52.158;5.588;2022-09-09T10:29:47;10.77;;;2.88;;
22250;SDS011;59348;52.158;5.588;2022-09-09T10:32:26;9.65;;;2.90;;
22250;SDS011;59348;52.158;5.588;2022-09-09T10:35:00;13.35;;;2.63;;
22250;SDS011;59348;52.158;5.588;2022-09-09T10:37:34;13.02;;;2.85;;
22250;SDS011;59348;52.158;5.588;2022-09-09T10:40:12;10.05;;;2.60;;
22250;SDS011;59348;52.158;5.588;2022-09-09T10:42:43;9.27;;;2.47;;
22250;SDS011;59348;52.158;5.588;2022-09-09T10:45:16;9.55;;;2.50;;
22250;SDS011;59348;52.158;5.588;2022-09-09T10:47:49;8.88;;;2.30;;
22250;SDS011;59348;52.158;5.588;2022-09-09T10:50:28;8.27;;;2.45;;
22250;SDS011;59348;52.158;5.588;2022-09-09T10:52:58;9.93;;;2.90;;
22250;SDS011;59348;52.158;5.588;2022-09-09T10:55:28;8.68;;;2.70;;
22250;SDS011;59348;52.158;5.588;2022-09-09T10:57:58;8.55;;;3.13;;
22250;SDS011;59348;52.158;5.588;2022-09-09T11:00:30;9.38;;;2.70;;
22250;SDS011;59348;52.158;5.588;2022-09-09T11:03:02;10.50;;;2.88;;
22250;SDS011;59348;52.158;5.588;2022-09-09T11:05:34;8.48;;;2.80;;
22250;SDS011;59348;52.158;5.588;2022-09-09T11:08:05;10.02;;;3.10;;
22250;SDS011;59348;52.158;5.588;2022-09-09T11:10:39;9.68;;;3.58;;
22250;SDS011;59348;52.158;5.588;2022-09-09T11:13:09;8.68;;;3.03;;
22250;SDS011;59348;52.158;5.588;2022-09-09T11:15:41;11.63;;;3.90;;
22250;SDS011;59348;52.158;5.588;2022-09-09T11:18:10;10.90;;;3.55;;
22250;SDS011;59348;52.158;5.588;2022-09-09T11:20:40;9.60;;;3.65;;
22250;SDS011;59348;52.158;5.588;2022-09-09T11:23:09;13.10;;;3.85;;
22250;SDS011;59348;52.158;5.588;2022-09-09T11:25:39;8.68;;;3.83;;
22250;SDS011;59348;52.158;5.588;2022-09-09T11:28:13;9.80;;;3.83;;
22250;SDS011;59348;52.158;5.588;2022-09-09T11:30:47;12.90;;;4.18;;
22250;SDS011;59348;52.158;5.588;2022-09-09T11:33:33;11.57;;;4.13;;
22250;SDS011;59348;52.158;5.588;2022-09-09T11:36:19;12.85;;;4.35;;
22250;SDS011;59348;52.158;5.588;2022-09-09T11:38:50;10.18;;;3.60;;
22250;SDS011;59348;52.158;5.588;2022-09-09T11:41:18;9.85;;;4.00;;
22250;SDS011;59348;52.158;5.588;2022-09-09T11:43:47;14.23;;;4.47;;
22250;SDS011;59348;52.158;5.588;2022-09-09T11:46:17;10.57;;;4.15;;
22250;SDS011;59348;52.158;5.588;2022-09-09T11:48:57;9.27;;;3.53;;
22250;SDS011;59348;52.158;5.588;2022-09-09T11:51:26;10.00;;;4.00;;
22250;SDS011;59348;52.158;5.588;2022-09-09T11:53:55;11.07;;;3.65;;
22250;SDS011;59348;52.158;5.588;2022-09-09T11:56:24;8.38;;;3.17;;
22250;SDS011;59348;52.158;5.588;2022-09-09T11:58:54;9.38;;;3.28;;
22250;SDS011;59348;52.158;5.588;2022-09-09T12:04:12;7.82;;;3.40;;
22250;SDS011;59348;52.158;5.588;2022-09-09T12:06:42;9.10;;;3.72;;
22250;SDS011;59348;52.158;5.588;2022-09-09T12:09:16;8.20;;;3.10;;
22250;SDS011;59348;52.158;5.588;2022-09-09T12:11:45;8.32;;;3.20;;
22250;SDS011;59348;52.158;5.588;2022-09-09T12:14:19;8.90;;;3.20;;
22250;SDS011;59348;52.158;5.588;2022-09-09T12:16:47;8.48;;;2.88;;
22250;SDS011;59348;52.158;5.588;2022-09-09T12:19:18;9.00;;;3.08;;
22250;SDS011;59348;52.158;5.588;2022-09-09T12:21:49;6.07;;;2.80;;
22250;SDS011;59348;52.158;5.588;2022-09-09T12:24:19;7.00;;;3.03;;
22250;SDS011;59348;52.158;5.588;2022-09-09T12:26:50;7.13;;;2.63;;
22250;SDS011;59348;52.158;5.588;2022-09-09T12:29:23;6.97;;;2.50;;
22250;SDS011;59348;52.158;5.588;2022-09-09T12:31:54;6.32;;;2.80;;
22250;SDS011;59348;52.158;5.588;2022-09-09T12:34:28;9.80;;;3.47;;
22250;SDS011;59348;52.158;5.588;2022-09-09T12:37:00;10.00;;;3.20;;
22250;SDS011;59348;52.158;5.588;2022-09-09T12:39:29;6.53;;;3.60;;
22250;SDS011;59348;52.158;5.588;2022-09-09T12:41:58;8.30;;;3.40;;
22250;SDS011;59348;52.158;5.588;2022-09-09T12:44:25;10.27;;;3.80;;
22250;SDS011;59348;52.158;5.588;2022-09-09T12:46:54;8.15;;;3.50;;
22250;SDS011;59348;52.158;5.588;2022-09-09T12:49:24;11.80;;;4.22;;
22250;SDS011;59348;52.158;5.588;2022-09-09T12:51:54;8.23;;;3.63;;
22250;SDS011;59348;52.158;5.588;2022-09-09T12:54:23;8.90;;;3.72;;
22250;SDS011;59348;52.158;5.588;2022-09-09T12:56:51;9.52;;;3.67;;
22250;SDS011;59348;52.158;5.588;2022-09-09T12:59:22;5.85;;;3.30;;
22250;SDS011;59348;52.158;5.588;2022-09-09T13:01:55;7.95;;;3.50;;
22250;SDS011;59348;52.158;5.588;2022-09-09T13:04:22;6.22;;;3.22;;
22250;SDS011;59348;52.158;5.588;2022-09-09T13:06:49;7.25;;;3.00;;
22250;SDS011;59348;52.158;5.588;2022-09-09T13:09:19;8.45;;;3.03;;
22250;SDS011;59348;52.158;5.588;2022-09-09T13:11:47;5.90;;;3.00;;
22250;SDS011;59348;52.158;5.588;2022-09-09T13:14:16;10.10;;;3.20;;
22250;SDS011;59348;52.158;5.588;2022-09-09T13:16:53;8.45;;;3.30;;
22250;SDS011;59348;52.158;5.588;2022-09-09T13:19:21;7.35;;;3.10;;
22250;SDS011;59348;52.158;5.588;2022-09-09T13:21:50;9.68;;;2.90;;
22250;SDS011;59348;52.158;5.588;2022-09-09T13:24:26;5.45;;;2.63;;
22250;SDS011;59348;52.158;5.588;2022-09-09T13:26:54;6.75;;;2.67;;
22250;SDS011;59348;52.158;5.588;2022-09-09T13:29:22;7.32;;;2.90;;
22250;SDS011;59348;52.158;5.588;2022-09-09T13:31:50;7.35;;;2.90;;
22250;SDS011;59348;52.158;5.588;2022-09-09T13:34:26;8.00;;;3.03;;
22250;SDS011;59348;52.158;5.588;2022-09-09T13:36:55;8.57;;;3.05;;
22250;SDS011;59348;52.158;5.588;2022-09-09T13:39:26;11.52;;;3.30;;
22250;SDS011;59348;52.158;5.588;2022-09-09T13:41:53;7.78;;;3.30;;
22250;SDS011;59348;52.158;5.588;2022-09-09T13:44:23;7.97;;;3.40;;
22250;SDS011;59348;52.158;5.588;2022-09-09T13:47:00;8.18;;;3.50;;
22250;SDS011;59348;52.158;5.588;2022-09-09T13:49:28;12.13;;;3.35;;
22250;SDS011;59348;52.158;5.588;2022-09-09T13:52:03;7.07;;;3.22;;
22250;SDS011;59348;52.158;5.588;2022-09-09T13:54:32;8.45;;;3.20;;
22250;SDS011;59348;52.158;5.588;2022-09-09T13:57:00;10.18;;;3.03;;
22250;SDS011;59348;52.158;5.588;2022-09-09T13:59:27;6.63;;;3.20;;
22250;SDS011;59348;52.158;5.588;2022-09-09T14:01:54;12.45;;;3.53;;
22250;SDS011;59348;52.158;5.588;2022-09-09T14:04:22;8.82;;;3.35;;
22250;SDS011;59348;52.158;5.588;2022-09-09T14:06:49;8.20;;;3.17;;
22250;SDS011;59348;52.158;5.588;2022-09-09T14:09:17;10.52;;;3.10;;
22250;SDS011;59348;52.158;5.588;2022-09-09T14:11:46;9.55;;;2.80;;
22250;SDS011;59348;52.158;5.588;2022-09-09T14:14:13;5.03;;;2.53;;
22250;SDS011;59348;52.158;5.588;2022-09-09T14:16:40;6.60;;;2.67;;
22250;SDS011;59348;52.158;5.588;2022-09-09T14:19:08;6.30;;;3.05;;
22250;SDS011;59348;52.158;5.588;2022-09-09T14:21:35;7.22;;;2.90;;
22250;SDS011;59348;52.158;5.588;2022-09-09T14:24:02;7.03;;;2.90;;
22250;SDS011;59348;52.158;5.588;2022-09-09T14:26:30;8.18;;;3.03;;
22250;SDS011;59348;52.158;5.588;2022-09-09T14:28:59;8.30;;;3.35;;
22250;SDS011;59348;52.158;5.588;2022-09-09T14:31:26;7.20;;;3.10;;
22250;SDS011;59348;52.158;5.588;2022-09-09T14:33:54;7.55;;;3.00;;
22250;SDS011;59348;52.158;5.588;2022-09-09T14:36:21;6.07;;;2.65;;
22250;SDS011;59348;52.158;5.588;2022-09-09T14:38:49;7.93;;;2.65;;
22250;SDS011;59348;52.158;5.588;2022-09-09T14:41:17;4.90;;;2.75;;
22250;SDS011;59348;52.158;5.588;2022-09-09T14:43:47;6.15;;;2.53;;
22250;SDS011;59348;52.158;5.588;2022-09-09T14:46:17;7.25;;;2.80;;
22250;SDS011;59348;52.158;5.588;2022-09-09T14:48:45;6.70;;;2.60;;
22250;SDS011;59348;52.158;5.588;2022-09-09T14:51:15;6.28;;;2.90;;
22250;SDS011;59348;52.158;5.588;2022-09-09T14:53:43;4.43;;;2.58;;
22250;SDS011;59348;52.158;5.588;2022-09-09T14:56:12;5.53;;;2.88;;
22250;SDS011;59348;52.158;5.588;2022-09-09T14:58:39;9.52;;;2.88;;
22250;SDS011;59348;52.158;5.588;2022-09-09T15:01:07;6.30;;;2.70;;
22250;SDS011;59348;52.158;5.588;2022-09-09T15:03:37;5.55;;;2.90;;
22250;SDS011;59348;52.158;5.588;2022-09-09T15:06:06;6.85;;;2.78;;